createdAt,value
2023-01-29T00:01:57.780Z,18.10
2023-01-29T00:04:24.569Z,17.67
2023-01-29T00:06:51.371Z,17.42
2023-01-29T00:09:18.914Z,18.17
2023-01-29T00:11:45.821Z,17.20
2023-01-29T00:14:13.376Z,17.30
2023-01-29T00:16:40.332Z,18.05
2023-01-29T00:19:07.070Z,18.42
2023-01-29T00:21:33.814Z,17.75
2023-01-29T00:24:00.576Z,17.88
2023-01-29T00:26:27.667Z,17.15
2023-01-29T00:28:57.141Z,17.10
2023-01-29T00:31:25.491Z,17.08
2023-01-29T00:33:52.568Z,17.02
2023-01-29T00:36:21.015Z,17.45
2023-01-29T00:38:54.592Z,17.73
2023-01-29T00:41:41.639Z,16.67
2023-01-29T00:44:28.518Z,17.58
2023-01-29T00:46:55.357Z,17.13
2023-01-29T00:49:22.211Z,16.35
2023-01-29T00:52:09.084Z,16.40
2023-01-29T00:54:36.384Z,15.70
2023-01-29T00:57:04.634Z,16.17
2023-01-29T00:59:31.942Z,16.75
2023-01-29T01:02:17.222Z,15.55
2023-01-29T01:04:44.070Z,15.75
2023-01-29T01:09:56.496Z,14.50
2023-01-29T01:12:23.280Z,13.88
2023-01-29T01:14:50.460Z,12.60
2023-01-29T01:17:17.442Z,13.25
2023-01-29T01:19:44.220Z,14.05
2023-01-29T01:22:12.165Z,14.20
2023-01-29T01:24:39.621Z,14.00
2023-01-29T01:27:07.034Z,13.13
2023-01-29T01:29:33.896Z,13.55
2023-01-29T01:32:01.003Z,15.48
2023-01-29T01:34:28.189Z,14.05
2023-01-29T01:36:56.350Z,13.32
2023-01-29T01:39:24.706Z,12.98
2023-01-29T01:41:55.230Z,13.80
2023-01-29T01:45:12.946Z,13.13
2023-01-29T01:47:51.356Z,12.75
2023-01-29T01:50:34.892Z,13.65
2023-01-29T01:53:08.642Z,13.82
2023-01-29T01:55:41.141Z,12.32
2023-01-29T01:58:15.810Z,12.95
2023-01-29T02:00:42.911Z,13.10
2023-01-29T02:03:30.722Z,13.85
2023-01-29T02:06:18.425Z,12.85
2023-01-29T02:09:06.872Z,12.40
2023-01-29T02:11:36.206Z,12.57
2023-01-29T02:14:03.601Z,12.60
2023-01-29T02:16:30.441Z,12.40
2023-01-29T02:18:57.262Z,12.55
2023-01-29T02:21:36.284Z,11.73
2023-01-29T02:24:44.228Z,11.60
2023-01-29T02:30:09.393Z,11.38
2023-01-29T02:33:12.338Z,12.10
2023-01-29T02:35:46.180Z,11.43
2023-01-29T02:38:27.387Z,11.13
2023-01-29T02:41:01.267Z,11.68
2023-01-29T02:43:30.761Z,11.60
2023-01-29T02:46:03.953Z,11.18
2023-01-29T02:48:40.943Z,11.27
2023-01-29T02:51:38.168Z,11.73
2023-01-29T02:54:20.548Z,10.27
2023-01-29T02:56:51.547Z,11.23
2023-01-29T02:59:25.039Z,10.07
2023-01-29T03:02:02.892Z,11.20
2023-01-29T03:04:33.202Z,10.75
2023-01-29T03:07:10.685Z,11.00
2023-01-29T03:09:43.275Z,10.50
2023-01-29T03:12:33.981Z,10.40
2023-01-29T03:15:14.087Z,10.80
2023-01-29T03:17:55.110Z,10.45
2023-01-29T03:20:29.424Z,9.93
2023-01-29T03:23:01.411Z,9.68
2023-01-29T03:25:47.052Z,10.80
2023-01-29T03:28:37.645Z,10.70
2023-01-29T03:31:26.655Z,10.98
2023-01-29T03:34:16.561Z,10.77
2023-01-29T03:37:00.659Z,10.25
2023-01-29T03:39:29.218Z,10.68
2023-01-29T03:42:35.418Z,11.13
2023-01-29T03:45:38.861Z,10.45
2023-01-29T03:48:24.091Z,11.38
2023-01-29T03:51:04.752Z,11.68
2023-01-29T03:53:50.245Z,11.35
2023-01-29T03:56:22.541Z,12.10
2023-01-29T03:59:00.549Z,11.85
2023-01-29T04:01:55.401Z,12.10
2023-01-29T04:04:26.799Z,11.90
2023-01-29T04:06:58.353Z,11.70
2023-01-29T04:09:34.182Z,11.88
2023-01-29T04:12:09.153Z,12.15
2023-01-29T04:14:39.306Z,12.10
2023-01-29T04:17:32.930Z,11.25
2023-01-29T04:20:11.314Z,11.23
2023-01-29T04:22:41.581Z,11.27
2023-01-29T04:25:15.972Z,10.75
2023-01-29T04:28:11.976Z,10.73
2023-01-29T04:30:44.172Z,10.80
2023-01-29T04:33:44.081Z,10.40
2023-01-29T04:36:38.249Z,8.93
2023-01-29T04:39:17.522Z,9.98
2023-01-29T04:41:59.313Z,10.23
2023-01-29T04:44:32.093Z,10.15
2023-01-29T04:47:23.383Z,9.90
2023-01-29T04:50:15.187Z,9.90
2023-01-29T04:52:52.031Z,9.65
2023-01-29T04:55:36.005Z,9.32
2023-01-29T04:58:22.576Z,9.30
2023-01-29T05:00:53.581Z,9.65
2023-01-29T05:03:26.604Z,10.65
2023-01-29T05:05:55.809Z,10.07
2023-01-29T05:08:25.372Z,10.10
2023-01-29T05:10:54.741Z,10.07
2023-01-29T05:13:23.376Z,10.30
2023-01-29T05:16:04.989Z,10.25
2023-01-29T05:18:32.331Z,9.63
2023-01-29T05:21:01.971Z,9.77
2023-01-29T05:23:28.636Z,9.63
2023-01-29T05:25:56.706Z,9.68
2023-01-29T05:28:24.048Z,10.23
2023-01-29T05:30:53.282Z,10.45
2023-01-29T05:33:31.283Z,9.93
2023-01-29T05:36:00.949Z,9.93
2023-01-29T05:38:28.003Z,10.10
2023-01-29T05:40:54.850Z,10.23
2023-01-29T05:43:25.390Z,10.10
2023-01-29T05:45:53.735Z,10.05
2023-01-29T05:48:20.590Z,10.13
2023-01-29T05:50:47.443Z,11.10
2023-01-29T05:53:14.366Z,11.18
2023-01-29T05:55:45.490Z,10.85
2023-01-29T05:58:12.754Z,11.65
2023-01-29T06:00:40.232Z,11.15
2023-01-29T06:03:07.688Z,11.90
2023-01-29T06:05:38.132Z,11.02
2023-01-29T06:08:05.314Z,11.32
2023-01-29T06:10:32.011Z,11.32
2023-01-29T06:12:58.700Z,12.88
2023-01-29T06:15:26.570Z,11.68
2023-01-29T06:17:57.077Z,12.60
2023-01-29T06:20:24.915Z,12.77
2023-01-29T06:22:51.783Z,12.40
2023-01-29T06:25:18.521Z,12.55
2023-01-29T06:27:45.172Z,12.65
2023-01-29T06:30:12.351Z,12.63
2023-01-29T06:32:39.060Z,12.48
2023-01-29T06:35:06.164Z,12.23
2023-01-29T06:37:32.837Z,12.57
2023-01-29T06:39:59.581Z,13.00
2023-01-29T06:42:28.070Z,13.50
2023-01-29T06:44:58.210Z,14.23
2023-01-29T06:47:24.935Z,14.05
2023-01-29T06:49:52.172Z,14.23
2023-01-29T06:52:19.000Z,15.10
2023-01-29T06:54:45.633Z,14.20
2023-01-29T06:57:12.262Z,14.55
2023-01-29T06:59:38.922Z,13.88
2023-01-29T07:02:05.780Z,14.32
2023-01-29T07:04:32.531Z,14.65
2023-01-29T07:06:59.994Z,14.00
2023-01-29T07:09:26.697Z,13.98
2023-01-29T07:11:53.367Z,14.07
2023-01-29T07:14:20.054Z,14.40
2023-01-29T07:16:46.723Z,14.18
2023-01-29T07:19:13.668Z,13.48
2023-01-29T07:21:40.378Z,13.68
2023-01-29T07:24:07.255Z,13.00
2023-01-29T07:26:33.920Z,13.98
2023-01-29T07:29:00.567Z,14.55
2023-01-29T07:31:27.349Z,14.57
2023-01-29T07:33:54.079Z,14.52
2023-01-29T07:36:20.709Z,14.88
2023-01-29T07:38:51.246Z,15.15
2023-01-29T07:41:17.928Z,14.32
2023-01-29T07:43:46.150Z,14.35
2023-01-29T07:46:12.983Z,14.05
2023-01-29T07:48:39.682Z,14.02
2023-01-29T07:51:06.681Z,15.48
2023-01-29T07:53:33.431Z,14.65
2023-01-29T07:56:00.160Z,14.68
2023-01-29T07:58:26.857Z,15.40
2023-01-29T08:00:53.647Z,15.63
2023-01-29T08:03:20.841Z,15.63
2023-01-29T08:05:48.048Z,17.10
2023-01-29T08:08:14.901Z,16.67
2023-01-29T08:10:42.312Z,17.33
2023-01-29T08:13:09.659Z,17.70
2023-01-29T08:15:38.784Z,17.48
2023-01-29T08:18:06.587Z,17.95
2023-01-29T08:20:33.294Z,18.60
2023-01-29T08:23:05.146Z,18.55
2023-01-29T08:25:32.908Z,18.40
2023-01-29T08:28:00.863Z,19.10
2023-01-29T08:30:29.963Z,18.98
2023-01-29T08:32:56.870Z,18.60
2023-01-29T08:35:24.392Z,18.60
2023-01-29T08:37:55.684Z,19.27
2023-01-29T08:40:22.810Z,19.17
2023-01-29T08:42:49.494Z,19.05
2023-01-29T08:45:16.381Z,18.90
2023-01-29T08:47:51.992Z,21.35
2023-01-29T08:50:19.531Z,19.77
2023-01-29T08:52:46.424Z,20.67
2023-01-29T08:55:13.675Z,21.02
2023-01-29T08:57:40.437Z,22.15
2023-01-29T09:00:09.414Z,22.45
2023-01-29T09:02:36.644Z,20.95
2023-01-29T09:05:03.671Z,22.85
2023-01-29T09:07:30.387Z,23.33
2023-01-29T09:09:57.229Z,24.30
2023-01-29T09:12:24.133Z,24.90
2023-01-29T09:14:50.830Z,25.10
2023-01-29T09:17:17.526Z,25.45
2023-01-29T09:19:44.300Z,26.70
2023-01-29T09:22:12.021Z,27.42
2023-01-29T09:24:39.036Z,26.63
2023-01-29T09:27:06.246Z,27.33
2023-01-29T09:29:35.663Z,27.83
2023-01-29T09:32:04.528Z,27.40
2023-01-29T09:34:31.277Z,29.02
2023-01-29T09:36:58.076Z,28.73
2023-01-29T09:39:24.770Z,29.77
2023-01-29T09:42:21.823Z,28.45
2023-01-29T09:44:57.189Z,30.63
2023-01-29T09:47:26.751Z,30.92
2023-01-29T09:49:57.966Z,30.83
2023-01-29T09:52:32.736Z,31.98
2023-01-29T09:54:59.446Z,31.75
2023-01-29T09:57:35.961Z,31.63
2023-01-29T10:02:50.919Z,31.10
2023-01-29T10:05:31.729Z,31.23
2023-01-29T10:08:21.055Z,30.42
2023-01-29T10:10:58.487Z,29.77
2023-01-29T10:13:45.154Z,31.13
2023-01-29T10:16:11.762Z,30.38
2023-01-29T10:18:53.750Z,29.25
2023-01-29T10:21:27.037Z,29.92
2023-01-29T10:24:17.389Z,29.45
2023-01-29T10:26:44.131Z,29.48
2023-01-29T10:29:18.387Z,28.05
2023-01-29T10:31:49.183Z,28.92
2023-01-29T10:34:35.538Z,28.85
2023-01-29T10:37:15.537Z,27.25
2023-01-29T10:39:42.355Z,28.10
2023-01-29T10:42:21.114Z,27.98
2023-01-29T10:44:56.980Z,28.88
2023-01-29T10:47:32.947Z,29.08
2023-01-29T10:50:13.979Z,29.88
2023-01-29T10:53:05.539Z,28.17
2023-01-29T10:55:35.301Z,29.25
2023-01-29T10:58:24.987Z,30.08
2023-01-29T11:00:52.616Z,30.80
2023-01-29T11:03:28.789Z,30.60
2023-01-29T11:06:29.554Z,31.75
2023-01-29T11:09:28.830Z,30.75
2023-01-29T11:12:03.013Z,32.85
2023-01-29T11:14:38.868Z,31.00
2023-01-29T11:17:05.644Z,31.10
2023-01-29T11:19:43.545Z,31.35
2023-01-29T11:22:22.646Z,31.63
2023-01-29T11:25:19.806Z,31.10
2023-01-29T11:27:58.028Z,31.15
2023-01-29T11:30:34.301Z,31.88
2023-01-29T11:33:18.982Z,31.95
2023-01-29T11:35:45.982Z,32.60
2023-01-29T11:38:16.027Z,31.75
2023-01-29T11:40:43.398Z,32.92
2023-01-29T11:43:26.509Z,32.28
2023-01-29T11:46:05.343Z,31.83
2023-01-29T11:48:40.840Z,32.47
2023-01-29T11:51:10.315Z,32.65
2023-01-29T11:53:43.827Z,30.70
2023-01-29T11:56:38.132Z,31.67
2023-01-29T11:59:05.497Z,31.15
2023-01-29T12:01:42.244Z,31.67
2023-01-29T12:04:27.011Z,30.73
2023-01-29T12:06:54.739Z,30.20
2023-01-29T12:09:28.271Z,29.95
2023-01-29T12:11:55.871Z,30.58
2023-01-29T12:14:25.111Z,30.02
2023-01-29T12:16:55.898Z,28.55
2023-01-29T12:19:36.571Z,29.52
2023-01-29T12:22:17.499Z,29.08
2023-01-29T12:24:54.586Z,29.25
2023-01-29T12:27:46.298Z,28.77
2023-01-29T12:30:20.238Z,28.27
2023-01-29T12:32:59.646Z,28.23
2023-01-29T12:35:31.073Z,28.80
2023-01-29T12:38:03.565Z,28.33
2023-01-29T12:40:44.135Z,29.38
2023-01-29T12:43:17.147Z,28.40
2023-01-29T12:45:49.559Z,28.45
2023-01-29T12:48:24.363Z,29.83
2023-01-29T12:50:53.974Z,29.33
2023-01-29T12:53:28.505Z,28.90
2023-01-29T12:56:19.339Z,29.75
2023-01-29T12:58:50.811Z,30.08
2023-01-29T13:01:28.626Z,30.17
2023-01-29T13:03:58.276Z,29.38
2023-01-29T13:06:41.553Z,30.23
2023-01-29T13:09:15.541Z,31.02
2023-01-29T13:11:52.125Z,29.60
2023-01-29T13:14:24.659Z,30.50
2023-01-29T13:16:59.344Z,30.65
2023-01-29T13:19:31.627Z,29.95
2023-01-29T13:22:02.113Z,28.63
2023-01-29T13:24:47.903Z,29.77
2023-01-29T13:27:26.401Z,30.30
2023-01-29T13:29:54.755Z,29.05
2023-01-29T13:32:30.633Z,29.45
2023-01-29T13:35:04.743Z,30.23
2023-01-29T13:37:41.141Z,29.33
2023-01-29T13:40:08.875Z,29.23
2023-01-29T13:42:42.497Z,29.55
2023-01-29T13:45:20.680Z,28.38
2023-01-29T13:47:49.887Z,29.13
2023-01-29T13:50:42.583Z,27.80
2023-01-29T13:53:29.095Z,29.92
2023-01-29T13:55:55.774Z,29.88
2023-01-29T13:58:31.326Z,28.45
2023-01-29T14:01:01.722Z,29.60
2023-01-29T14:03:56.094Z,30.13
2023-01-29T14:06:40.419Z,28.17
2023-01-29T14:09:58.873Z,29.17
2023-01-29T14:12:25.548Z,29.27
2023-01-29T14:14:55.252Z,29.98
2023-01-29T14:17:24.574Z,30.15
2023-01-29T14:19:53.484Z,28.70
2023-01-29T14:22:23.218Z,29.15
2023-01-29T14:24:55.706Z,29.50
2023-01-29T14:27:27.930Z,31.70
2023-01-29T14:30:06.452Z,29.52
2023-01-29T14:32:33.788Z,29.27
2023-01-29T14:35:01.675Z,30.65
2023-01-29T14:37:34.272Z,31.42
2023-01-29T14:40:20.803Z,29.80
2023-01-29T14:42:56.690Z,30.17
2023-01-29T14:45:38.586Z,29.65
2023-01-29T14:48:36.739Z,31.63
2023-01-29T14:51:09.741Z,29.70
2023-01-29T14:54:01.760Z,30.85
2023-01-29T14:56:44.146Z,31.67
2023-01-29T14:59:19.698Z,29.90
2023-01-29T15:01:58.369Z,30.48
2023-01-29T15:04:35.239Z,28.10
2023-01-29T15:07:11.023Z,30.90
2023-01-29T15:09:43.191Z,30.13
2023-01-29T15:12:18.787Z,29.88
2023-01-29T15:15:21.396Z,30.17
2023-01-29T15:18:05.569Z,28.48
2023-01-29T15:20:36.230Z,30.67
2023-01-29T15:23:03.832Z,29.48
2023-01-29T15:25:49.775Z,31.63
2023-01-29T15:28:16.523Z,29.90
2023-01-29T15:30:45.054Z,29.52
2023-01-29T15:33:14.040Z,30.70
2023-01-29T15:35:42.275Z,29.65
2023-01-29T15:38:24.097Z,30.00
2023-01-29T15:41:02.243Z,30.65
2023-01-29T15:43:37.525Z,30.83
2023-01-29T15:46:30.563Z,30.52
2023-01-29T15:49:01.480Z,30.08
2023-01-29T15:51:29.048Z,28.77
2023-01-29T15:53:55.719Z,29.75
2023-01-29T15:56:29.766Z,29.98
2023-01-29T15:59:00.803Z,29.13
2023-01-29T16:01:28.346Z,27.75
2023-01-29T16:03:59.301Z,28.60
2023-01-29T16:06:26.922Z,27.23
2023-01-29T16:08:55.382Z,28.83
2023-01-29T16:11:22.405Z,29.27
2023-01-29T16:13:50.718Z,29.23
2023-01-29T16:16:28.247Z,29.85
2023-01-29T16:19:00.495Z,28.75
2023-01-29T16:21:33.176Z,29.23
2023-01-29T16:24:03.152Z,27.45
2023-01-29T16:26:36.811Z,28.98
2023-01-29T16:29:06.715Z,28.70
2023-01-29T16:31:35.583Z,27.77
2023-01-29T16:34:08.780Z,28.13
2023-01-29T16:36:35.862Z,28.77
2023-01-29T16:39:06.652Z,27.98
2023-01-29T16:41:36.369Z,27.33
2023-01-29T16:44:35.183Z,27.83
2023-01-29T16:47:13.339Z,28.25
2023-01-29T16:49:44.197Z,27.25
2023-01-29T16:52:22.824Z,28.67
2023-01-29T16:54:49.553Z,27.98
2023-01-29T16:57:20.017Z,27.50
2023-01-29T16:59:47.183Z,27.65
2023-01-29T17:02:33.498Z,26.98
2023-01-29T17:05:04.257Z,27.42
2023-01-29T17:07:32.898Z,27.63
2023-01-29T17:10:02.554Z,26.77
2023-01-29T17:12:31.328Z,26.40
2023-01-29T17:15:05.180Z,26.75
2023-01-29T17:17:34.623Z,26.35
2023-01-29T17:20:15.820Z,25.08
2023-01-29T17:22:44.803Z,25.95
2023-01-29T17:25:14.958Z,25.45
2023-01-29T17:27:44.237Z,25.85
2023-01-29T17:30:22.436Z,25.65
2023-01-29T17:32:49.255Z,24.35
2023-01-29T17:35:17.580Z,25.25
2023-01-29T17:37:44.648Z,23.55
2023-01-29T17:40:29.704Z,24.42
2023-01-29T17:42:56.366Z,23.98
2023-01-29T17:45:23.167Z,23.88
2023-01-29T17:47:49.832Z,22.92
2023-01-29T17:50:26.358Z,24.10
2023-01-29T17:55:21.153Z,22.00
2023-01-29T17:57:47.982Z,21.85
2023-01-29T18:00:24.257Z,21.52
2023-01-29T18:02:51.703Z,21.70
2023-01-29T18:05:19.373Z,20.67
2023-01-29T18:07:47.760Z,20.63
2023-01-29T18:10:19.575Z,21.63
2023-01-29T18:12:46.414Z,22.38
2023-01-29T18:15:13.937Z,21.30
2023-01-29T18:17:41.190Z,20.60
2023-01-29T18:20:25.825Z,20.83
2023-01-29T18:22:53.240Z,21.25
2023-01-29T18:25:20.481Z,21.75
2023-01-29T18:27:47.568Z,20.88
2023-01-29T18:30:14.654Z,21.48
2023-01-29T18:32:41.376Z,20.73
2023-01-29T18:35:08.678Z,22.13
2023-01-29T18:37:36.300Z,20.73
2023-01-29T18:40:03.436Z,21.92
2023-01-29T18:42:32.380Z,21.55
2023-01-29T18:44:59.367Z,22.00
2023-01-29T18:47:26.025Z,21.13
2023-01-29T18:49:52.842Z,23.42
2023-01-29T18:52:19.487Z,21.85
2023-01-29T18:54:46.116Z,23.10
2023-01-29T18:57:14.773Z,22.70
2023-01-29T18:59:59.605Z,23.40
2023-01-29T19:02:26.649Z,22.35
2023-01-29T19:04:53.487Z,23.58
2023-01-29T19:07:20.249Z,24.35
2023-01-29T19:09:47.020Z,24.27
2023-01-29T19:12:14.163Z,24.98
2023-01-29T19:14:40.963Z,25.38
2023-01-29T19:17:07.925Z,25.35
2023-01-29T19:19:34.960Z,26.05
2023-01-29T19:22:02.265Z,27.58
2023-01-29T19:24:29.009Z,26.33
2023-01-29T19:26:55.780Z,27.77
2023-01-29T19:29:22.743Z,28.48
2023-01-29T19:31:49.494Z,28.63
2023-01-29T19:34:16.223Z,29.27
2023-01-29T19:36:43.193Z,29.70
2023-01-29T19:39:11.288Z,29.95
2023-01-29T19:41:37.976Z,30.48
2023-01-29T19:44:04.723Z,31.33
2023-01-29T19:46:31.501Z,31.85
2023-01-29T19:48:58.865Z,31.88
2023-01-29T19:51:28.161Z,31.42
2023-01-29T19:53:55.751Z,34.22
2023-01-29T19:56:22.439Z,34.10
2023-01-29T19:58:49.143Z,33.78
2023-01-29T20:01:18.461Z,35.85
2023-01-29T20:03:47.246Z,36.03
2023-01-29T20:06:16.556Z,36.55
2023-01-29T20:08:45.477Z,37.10
2023-01-29T20:11:16.814Z,36.92
2023-01-29T20:13:43.839Z,38.38
2023-01-29T20:16:10.538Z,37.03
2023-01-29T20:18:37.251Z,38.97
2023-01-29T20:21:10.098Z,38.17
2023-01-29T20:23:38.721Z,37.85
2023-01-29T20:26:12.386Z,37.50
2023-01-29T20:28:39.789Z,39.72
2023-01-29T20:31:08.002Z,37.22
2023-01-29T20:33:36.661Z,39.03
2023-01-29T20:36:07.293Z,38.58
2023-01-29T20:38:34.755Z,39.60
2023-01-29T20:41:04.220Z,39.97
2023-01-29T20:43:31.080Z,39.63
2023-01-29T20:45:58.646Z,41.22
2023-01-29T20:48:26.063Z,39.63
2023-01-29T20:50:53.338Z,40.55
2023-01-29T20:53:20.019Z,40.03
2023-01-29T20:55:46.822Z,39.47
2023-01-29T20:58:13.670Z,38.92
2023-01-29T21:00:40.490Z,39.55
2023-01-29T21:03:07.140Z,40.92
2023-01-29T21:05:33.824Z,40.03
2023-01-29T21:08:00.452Z,39.03
2023-01-29T21:10:27.096Z,40.05
2023-01-29T21:12:54.712Z,40.03
2023-01-29T21:15:21.679Z,37.85
2023-01-29T21:17:48.440Z,40.53
2023-01-29T21:20:15.518Z,40.80
2023-01-29T21:22:43.947Z,41.45
2023-01-29T21:25:11.293Z,38.63
2023-01-29T21:27:39.198Z,40.97
2023-01-29T21:30:06.423Z,40.00
2023-01-29T21:32:33.155Z,40.47
2023-01-29T21:34:59.877Z,40.25
2023-01-29T21:37:26.529Z,39.28
2023-01-29T21:39:53.206Z,40.42
2023-01-29T21:42:38.684Z,38.78
2023-01-29T21:45:05.909Z,40.15
2023-01-29T21:47:32.581Z,37.85
2023-01-29T21:49:59.274Z,38.72
2023-01-29T21:52:26.040Z,38.78
2023-01-29T21:54:53.745Z,38.38
2023-01-29T21:57:20.408Z,38.28
2023-01-29T21:59:52.871Z,39.78
2023-01-29T22:02:22.085Z,36.90
2023-01-29T22:04:48.886Z,37.97
2023-01-29T22:07:16.473Z,37.45
2023-01-29T22:09:43.373Z,38.97
2023-01-29T22:12:10.268Z,37.33
2023-01-29T22:14:44.206Z,36.20
2023-01-29T22:17:10.943Z,36.28
2023-01-29T22:19:37.683Z,35.53
2023-01-29T22:22:04.378Z,35.53
2023-01-29T22:24:31.089Z,35.10
2023-01-29T22:26:57.776Z,36.53
2023-01-29T22:29:24.433Z,34.53
2023-01-29T22:31:51.074Z,36.03
2023-01-29T22:34:17.719Z,36.03
2023-01-29T22:36:44.373Z,34.97
2023-01-29T22:39:11.163Z,35.10
2023-01-29T22:41:37.904Z,34.03
2023-01-29T22:44:04.919Z,33.85
2023-01-29T22:46:31.700Z,33.67
2023-01-29T22:48:58.476Z,35.10
2023-01-29T22:51:25.229Z,33.63
2023-01-29T22:53:54.003Z,31.55
2023-01-29T22:56:25.311Z,32.38
2023-01-29T22:58:57.501Z,31.70
2023-01-29T23:01:27.589Z,30.67
2023-01-29T23:03:54.311Z,31.00
2023-01-29T23:06:24.470Z,31.80
2023-01-29T23:08:51.541Z,30.42
2023-01-29T23:11:20.930Z,30.10
2023-01-29T23:13:48.887Z,28.80
2023-01-29T23:16:17.252Z,29.67
2023-01-29T23:18:45.159Z,30.50
2023-01-29T23:21:12.546Z,30.77
2023-01-29T23:31:28.352Z,30.20
2023-01-29T23:33:55.402Z,30.83
2023-01-29T23:36:22.089Z,29.48
2023-01-29T23:38:48.768Z,30.23
2023-01-29T23:41:15.464Z,30.08
2023-01-29T23:43:44.043Z,30.58
2023-01-29T23:46:10.673Z,29.55
2023-01-29T23:48:37.344Z,30.20
2023-01-29T23:51:04.155Z,29.50
2023-01-29T23:53:30.907Z,30.27
2023-01-29T23:56:05.765Z,29.00
2023-01-29T23:58:33.259Z,28.33
